createdAt,value
2018-11-27T00:00:25.136Z,15.40
2018-11-27T00:02:56.157Z,14.40
2018-11-27T00:05:24.669Z,13.27
2018-11-27T00:07:53.265Z,11.03
2018-11-27T00:10:21.732Z,12.30
2018-11-27T00:12:50.201Z,25.23
2018-11-27T00:15:19.029Z,28.87
2018-11-27T00:17:47.510Z,27.27
2018-11-27T00:20:16.071Z,25.63
2018-11-27T00:22:44.680Z,19.27
2018-11-27T00:25:17.267Z,12.87
2018-11-27T00:27:45.936Z,9.33
2018-11-27T00:30:16.032Z,8.47
2018-11-27T00:32:44.622Z,7.07
2018-11-27T00:35:14.422Z,10.13
2018-11-27T00:37:42.936Z,13.40
2018-11-27T00:40:20.672Z,13.23
2018-11-27T00:42:49.391Z,9.17
2018-11-27T00:45:19.007Z,9.53
2018-11-27T00:47:48.620Z,12.37
2018-11-27T00:50:18.173Z,10.30
2018-11-27T00:52:46.616Z,12.47
2018-11-27T00:55:16.007Z,24.87
2018-11-27T00:57:45.533Z,21.70
2018-11-27T01:00:16.374Z,17.93
2018-11-27T01:02:45.207Z,17.00
2018-11-27T01:05:15.677Z,14.37
2018-11-27T01:07:44.405Z,13.70
2018-11-27T01:10:16.192Z,13.10
2018-11-27T01:12:44.820Z,17.30
2018-11-27T01:15:14.527Z,16.63
2018-11-27T01:17:44.426Z,20.80
2018-11-27T01:20:14.290Z,23.40
2018-11-27T01:22:42.767Z,24.57
2018-11-27T01:25:11.505Z,25.23
2018-11-27T01:27:39.984Z,25.37
2018-11-27T01:30:13.929Z,18.47
2018-11-27T01:32:42.500Z,19.50
2018-11-27T01:35:12.127Z,11.43
2018-11-27T01:37:40.687Z,12.83
2018-11-27T01:40:17.990Z,11.80
2018-11-27T01:42:47.441Z,11.03
2018-11-27T01:45:17.255Z,12.43
2018-11-27T01:47:45.971Z,13.90
2018-11-27T01:50:15.410Z,8.67
2018-11-27T01:52:43.875Z,7.77
2018-11-27T01:55:15.742Z,10.43
2018-11-27T01:57:44.311Z,10.17
2018-11-27T02:00:29.207Z,8.00
2018-11-27T02:02:58.869Z,11.80
2018-11-27T02:05:27.846Z,11.87
2018-11-27T02:07:56.637Z,12.77
2018-11-27T02:10:25.398Z,13.10
2018-11-27T02:12:54.899Z,13.83
2018-11-27T02:15:28.573Z,12.77
2018-11-27T02:17:57.204Z,12.90
2018-11-27T02:20:25.766Z,15.77
2018-11-27T02:22:54.377Z,16.70
2018-11-27T02:25:24.035Z,14.07
2018-11-27T02:27:52.618Z,12.50
2018-11-27T02:30:22.400Z,15.53
2018-11-27T02:32:51.346Z,12.03
2018-11-27T02:35:23.013Z,11.23
2018-11-27T02:37:52.508Z,14.47
2018-11-27T02:40:20.980Z,17.33
2018-11-27T02:42:49.528Z,14.60
2018-11-27T02:45:19.898Z,15.53
2018-11-27T02:47:49.248Z,15.33
2018-11-27T02:50:18.842Z,17.80
2018-11-27T02:52:47.442Z,22.33
2018-11-27T02:55:16.985Z,13.50
2018-11-27T02:57:45.773Z,13.60
2018-11-27T03:00:15.532Z,13.43
2018-11-27T03:02:44.030Z,12.40
2018-11-27T03:05:18.112Z,11.17
2018-11-27T03:07:46.602Z,13.40
2018-11-27T03:10:15.864Z,14.90
2018-11-27T03:12:44.388Z,17.87
2018-11-27T03:15:13.996Z,15.20
2018-11-27T03:17:42.519Z,13.90
2018-11-27T03:20:15.364Z,11.90
2018-11-27T03:22:43.979Z,10.90
2018-11-27T03:25:13.563Z,10.27
2018-11-27T03:27:42.101Z,11.27
2018-11-27T03:30:14.591Z,10.10
2018-11-27T03:32:43.283Z,10.47
2018-11-27T03:35:13.768Z,13.37
2018-11-27T03:37:42.394Z,14.60
2018-11-27T03:40:17.136Z,22.83
2018-11-27T03:42:45.903Z,17.43
2018-11-27T03:45:15.081Z,14.40
2018-11-27T03:47:43.735Z,15.13
2018-11-27T03:50:14.214Z,15.07
2018-11-27T03:52:42.898Z,13.50
2018-11-27T03:55:12.304Z,13.27
2018-11-27T03:57:40.839Z,9.73
2018-11-27T04:00:15.011Z,10.23
2018-11-27T04:02:43.932Z,11.60
2018-11-27T04:05:13.067Z,11.40
2018-11-27T04:07:41.853Z,9.47
2018-11-27T04:10:14.797Z,11.40
2018-11-27T04:12:43.462Z,12.43
2018-11-27T04:15:12.693Z,9.33
2018-11-27T04:17:41.423Z,10.07
2018-11-27T04:20:10.980Z,9.57
2018-11-27T04:22:39.863Z,12.77
2018-11-27T04:25:16.330Z,9.87
2018-11-27T04:27:45.567Z,11.10
2018-11-27T04:30:16.548Z,12.33
2018-11-27T04:32:45.227Z,11.23
2018-11-27T04:35:14.544Z,15.57
2018-11-27T04:37:43.170Z,16.67
2018-11-27T04:40:14.802Z,17.07
2018-11-27T04:42:43.372Z,22.07
2018-11-27T04:45:16.130Z,20.03
2018-11-27T04:47:44.818Z,20.57
2018-11-27T04:50:14.320Z,20.30
2018-11-27T04:52:43.139Z,21.73
2018-11-27T04:55:13.941Z,21.03
2018-11-27T04:57:42.863Z,19.90
2018-11-27T05:00:18.299Z,27.03
2018-11-27T05:02:46.804Z,20.33
2018-11-27T05:05:15.410Z,21.23
2018-11-27T05:07:44.218Z,19.90
2018-11-27T05:10:16.558Z,16.37
2018-11-27T05:12:45.404Z,16.63
2018-11-27T05:15:15.920Z,14.63
2018-11-27T05:17:48.020Z,16.37
2018-11-27T05:20:14.313Z,14.87
2018-11-27T05:22:42.847Z,14.80
2018-11-27T05:25:12.380Z,17.37
2018-11-27T05:27:42.083Z,17.23
2018-11-27T05:30:14.055Z,19.70
2018-11-27T05:32:42.582Z,19.60
2018-11-27T05:35:13.348Z,15.37
2018-11-27T05:37:42.480Z,17.10
2018-11-27T05:40:13.285Z,19.13
2018-11-27T05:42:41.956Z,20.47
2018-11-27T05:45:12.008Z,20.47
2018-11-27T05:47:40.555Z,22.33
2018-11-27T05:50:12.501Z,23.93
2018-11-27T05:52:40.963Z,24.50
2018-11-27T05:55:10.653Z,22.70
2018-11-27T05:57:39.455Z,24.77
2018-11-27T06:00:12.771Z,28.77
2018-11-27T06:02:41.430Z,23.20
2018-11-27T06:05:17.696Z,26.50
2018-11-27T06:07:46.252Z,25.03
2018-11-27T06:10:15.752Z,32.53
2018-11-27T06:12:44.526Z,28.47
2018-11-27T06:15:18.989Z,35.87
2018-11-27T06:17:49.787Z,29.37
2018-11-27T06:20:19.387Z,28.87
2018-11-27T06:22:47.850Z,28.77
2018-11-27T06:25:17.582Z,26.27
2018-11-27T06:27:48.145Z,26.93
2018-11-27T06:30:18.016Z,31.17
2018-11-27T06:32:46.626Z,33.47
2018-11-27T06:35:18.707Z,21.07
2018-11-27T06:37:47.228Z,17.67
2018-11-27T06:40:17.959Z,20.60
2018-11-27T06:42:46.700Z,21.37
2018-11-27T06:45:18.247Z,24.13
2018-11-27T06:47:47.700Z,44.60
2018-11-27T06:50:16.755Z,34.77
2018-11-27T06:52:45.378Z,26.37
2018-11-27T06:55:14.841Z,23.30
2018-11-27T06:57:43.384Z,23.53
2018-11-27T07:00:15.104Z,17.63
2018-11-27T07:02:43.675Z,25.83
2018-11-27T07:05:12.915Z,27.13
2018-11-27T07:07:42.029Z,30.73
2018-11-27T07:10:20.964Z,36.43
2018-11-27T07:12:50.764Z,37.47
2018-11-27T07:15:20.532Z,31.13
2018-11-27T07:17:49.286Z,33.37
2018-11-27T07:20:17.915Z,37.30
2018-11-27T07:22:46.656Z,36.60
2018-11-27T07:25:16.100Z,35.30
2018-11-27T07:27:46.959Z,38.70
2018-11-27T07:30:18.727Z,40.07
2018-11-27T07:32:47.236Z,47.07
2018-11-27T07:35:16.555Z,53.00
2018-11-27T07:37:45.056Z,39.10
2018-11-27T07:40:15.705Z,31.90
2018-11-27T07:42:44.451Z,28.67
2018-11-27T07:45:16.255Z,27.37
2018-11-27T07:47:44.834Z,26.60
2018-11-27T07:50:13.995Z,32.00
2018-11-27T07:52:42.545Z,34.27
2018-11-27T07:55:13.283Z,36.23
2018-11-27T07:57:41.977Z,35.67
2018-11-27T08:00:14.502Z,33.83
2018-11-27T08:02:44.159Z,34.73
2018-11-27T08:05:14.192Z,33.73
2018-11-27T08:07:43.947Z,28.77
2018-11-27T08:10:15.009Z,33.80
2018-11-27T08:12:43.483Z,35.87
2018-11-27T08:15:13.374Z,33.50
2018-11-27T08:17:42.305Z,30.63
2018-11-27T08:20:15.284Z,30.57
2018-11-27T08:22:43.768Z,28.97
2018-11-27T08:25:13.503Z,33.97
2018-11-27T08:27:42.137Z,38.70
2018-11-27T08:30:15.831Z,41.30
2018-11-27T08:32:44.500Z,41.43
2018-11-27T08:35:14.202Z,37.50
2018-11-27T08:37:43.087Z,36.20
2018-11-27T08:40:15.595Z,40.90
2018-11-27T08:42:44.157Z,42.37
2018-11-27T08:45:14.683Z,48.77
2018-11-27T08:47:43.401Z,43.47
2018-11-27T08:50:13.950Z,47.50
2018-11-27T08:52:46.704Z,42.77
2018-11-27T08:55:13.265Z,45.17
2018-11-27T08:57:43.173Z,43.13
2018-11-27T09:00:15.178Z,45.63
2018-11-27T09:02:43.975Z,47.23
2018-11-27T09:05:13.168Z,46.57
2018-11-27T09:07:42.011Z,52.50
2018-11-27T09:10:19.152Z,47.10
2018-11-27T09:12:47.735Z,48.87
2018-11-27T09:15:18.212Z,47.17
2018-11-27T09:17:55.314Z,45.33
2018-11-27T09:20:23.885Z,46.23
2018-11-27T09:22:52.507Z,43.93
2018-11-27T09:25:21.094Z,48.93
2018-11-27T09:27:49.693Z,45.80
2018-11-27T09:30:25.644Z,47.57
2018-11-27T09:32:55.268Z,42.63
2018-11-27T09:35:23.837Z,45.13
2018-11-27T09:37:52.412Z,44.13
2018-11-27T09:40:21.530Z,42.23
2018-11-27T09:42:49.976Z,34.70
2018-11-27T09:45:19.756Z,32.57
2018-11-27T09:47:52.582Z,33.60
2018-11-27T09:50:21.256Z,33.90
2018-11-27T09:52:49.838Z,33.30
2018-11-27T09:55:24.514Z,36.10
2018-11-27T09:57:58.759Z,38.77
2018-11-27T10:00:28.240Z,33.80
2018-11-27T10:02:58.183Z,38.57
2018-11-27T10:05:26.683Z,40.10
2018-11-27T10:07:55.485Z,47.17
2018-11-27T10:10:24.898Z,35.60
2018-11-27T10:12:53.627Z,39.00
2018-11-27T10:15:25.279Z,40.43
2018-11-27T10:17:56.841Z,40.30
2018-11-27T10:20:27.527Z,36.33
2018-11-27T10:22:56.120Z,37.57
2018-11-27T10:25:24.789Z,33.47
2018-11-27T10:27:53.429Z,35.53
2018-11-27T10:30:23.378Z,36.00
2018-11-27T10:32:53.054Z,35.87
2018-11-27T10:35:24.589Z,39.03
2018-11-27T10:37:53.234Z,36.70
2018-11-27T10:40:21.762Z,38.83
2018-11-27T10:42:51.027Z,40.03
2018-11-27T10:45:21.523Z,37.37
2018-11-27T10:47:51.239Z,32.63
2018-11-27T10:50:19.882Z,37.70
2018-11-27T10:52:49.498Z,35.00
2018-11-27T10:55:18.822Z,36.47
2018-11-27T10:57:47.510Z,39.10
2018-11-27T11:00:28.255Z,39.30
2018-11-27T11:03:02.267Z,37.80
2018-11-27T11:05:35.048Z,41.50
2018-11-27T11:08:03.761Z,42.67
2018-11-27T11:10:32.250Z,37.70
2018-11-27T11:13:00.721Z,40.10
2018-11-27T11:15:29.263Z,38.93
2018-11-27T11:17:57.719Z,38.20
2018-11-27T11:20:26.259Z,40.13
2018-11-27T11:22:54.996Z,38.80
2018-11-27T11:25:24.707Z,41.53
2018-11-27T11:27:54.842Z,37.27
2018-11-27T11:30:23.922Z,38.33
2018-11-27T11:32:52.457Z,36.97
2018-11-27T11:35:20.983Z,41.50
2018-11-27T11:37:50.030Z,42.23
2018-11-27T11:40:21.934Z,30.73
2018-11-27T11:42:52.585Z,30.20
2018-11-27T11:45:21.037Z,32.30
2018-11-27T11:47:49.665Z,35.03
2018-11-27T11:50:19.751Z,26.23
2018-11-27T11:52:52.853Z,30.80
2018-11-27T11:55:21.497Z,31.73
2018-11-27T11:57:49.956Z,32.70
2018-11-27T12:00:21.218Z,36.20
2018-11-27T12:02:49.747Z,35.60
2018-11-27T12:05:18.348Z,36.30
2018-11-27T12:07:46.887Z,34.00
2018-11-27T12:10:16.540Z,34.27
2018-11-27T12:12:46.517Z,32.23
2018-11-27T12:15:17.150Z,30.73
2018-11-27T12:17:46.274Z,32.77
2018-11-27T12:20:16.585Z,32.23
2018-11-27T12:22:47.554Z,32.47
2018-11-27T12:25:16.051Z,30.30
2018-11-27T12:27:44.483Z,33.37
2018-11-27T12:30:15.855Z,32.10
2018-11-27T12:32:44.438Z,25.50
2018-11-27T12:35:13.573Z,26.90
2018-11-27T12:37:42.224Z,24.67
2018-11-27T12:40:12.300Z,25.43
2018-11-27T12:42:41.061Z,25.60
2018-11-27T12:45:11.129Z,27.80
2018-11-27T12:47:39.967Z,27.37
2018-11-27T12:50:18.582Z,26.70
2018-11-27T12:52:47.317Z,26.70
2018-11-27T12:55:18.791Z,28.67
2018-11-27T12:57:47.351Z,26.33
2018-11-27T13:00:17.089Z,31.00
2018-11-27T13:02:45.742Z,27.50
2018-11-27T13:05:15.560Z,27.40
2018-11-27T13:07:44.166Z,30.27
2018-11-27T13:10:15.016Z,29.93
2018-11-27T13:12:44.477Z,26.90
2018-11-27T13:15:15.350Z,26.47
2018-11-27T13:17:43.845Z,29.80
2018-11-27T13:20:13.631Z,29.67
2018-11-27T13:22:43.413Z,28.97
2018-11-27T13:25:17.598Z,28.73
2018-11-27T13:27:46.163Z,27.40
2018-11-27T13:30:22.072Z,26.43
2018-11-27T13:32:52.516Z,30.27
2018-11-27T13:35:21.006Z,26.40
2018-11-27T13:37:49.649Z,28.33
2018-11-27T13:40:18.266Z,38.07
2018-11-27T13:42:46.855Z,32.87
2018-11-27T13:45:16.036Z,32.80
2018-11-27T13:47:44.707Z,33.33
2018-11-27T13:50:14.399Z,30.07
2018-11-27T13:52:42.996Z,28.43
2018-11-27T13:55:17.754Z,32.57
2018-11-27T13:57:46.324Z,29.57
2018-11-27T14:00:16.875Z,27.23
2018-11-27T14:02:50.154Z,27.67
2018-11-27T14:05:19.884Z,25.97
2018-11-27T14:07:48.499Z,25.87
2018-11-27T14:10:17.065Z,28.80
2018-11-27T14:12:45.673Z,27.03
2018-11-27T14:15:21.257Z,29.87
2018-11-27T14:17:50.483Z,29.90
2018-11-27T14:20:19.021Z,27.63
2018-11-27T14:22:48.306Z,26.10
2018-11-27T14:25:17.153Z,28.23
2018-11-27T14:27:46.035Z,25.33
2018-11-27T14:30:17.711Z,29.67
2018-11-27T14:32:46.683Z,29.43
2018-11-27T14:35:15.899Z,28.07
2018-11-27T14:37:45.350Z,26.13
2018-11-27T14:40:21.659Z,26.63
2018-11-27T14:42:50.193Z,22.77
2018-11-27T14:45:21.219Z,30.07
2018-11-27T14:47:52.203Z,27.43
2018-11-27T14:50:20.699Z,33.60
2018-11-27T14:52:49.363Z,49.47
2018-11-27T14:55:35.182Z,29.37
2018-11-27T14:58:03.760Z,26.27
2018-11-27T15:00:32.508Z,29.00
2018-11-27T15:03:01.146Z,26.67
2018-11-27T15:05:32.819Z,29.27
2018-11-27T15:08:02.018Z,28.60
2018-11-27T15:10:30.612Z,26.77
2018-11-27T15:12:59.220Z,36.97
2018-11-27T15:15:27.775Z,44.30
2018-11-27T15:17:56.303Z,42.50
2018-11-27T15:20:24.934Z,38.77
2018-11-27T15:22:53.614Z,44.23
2018-11-27T15:25:22.142Z,34.10
2018-11-27T15:27:50.617Z,34.37
2018-11-27T15:30:30.160Z,30.33
2018-11-27T15:32:59.799Z,31.77
2018-11-27T15:35:28.358Z,50.47
2018-11-27T15:37:57.965Z,54.90
2018-11-27T15:40:28.456Z,39.10
2018-11-27T15:42:56.940Z,38.23
2018-11-27T15:45:28.880Z,49.50
2018-11-27T15:47:57.453Z,35.80
2018-11-27T15:50:26.122Z,51.93
2018-11-27T15:52:54.846Z,59.10
2018-11-27T15:55:25.520Z,103.33
2018-11-27T15:57:56.540Z,125.80
2018-11-27T16:00:25.235Z,94.97
2018-11-27T16:02:53.922Z,61.07
2018-11-27T16:05:22.547Z,45.97
2018-11-27T16:07:51.315Z,34.50
2018-11-27T16:10:20.254Z,33.10
2018-11-27T16:12:48.787Z,33.90
2018-11-27T16:15:18.709Z,36.23
2018-11-27T16:17:48.030Z,42.47
2018-11-27T16:20:18.003Z,86.10
2018-11-27T16:22:47.524Z,68.67
2018-11-27T16:25:17.065Z,73.70
2018-11-27T16:27:46.067Z,69.83
2018-11-27T16:30:23.373Z,68.40
2018-11-27T16:32:52.095Z,63.13
2018-11-27T16:35:20.751Z,70.77
2018-11-27T16:37:52.552Z,68.10
2018-11-27T16:40:23.159Z,74.30
2018-11-27T16:42:51.611Z,69.40
2018-11-27T16:45:21.248Z,75.00
2018-11-27T16:47:50.170Z,70.87
2018-11-27T16:50:19.117Z,75.80
2018-11-27T16:52:48.015Z,77.10
2018-11-27T16:55:17.605Z,71.23
2018-11-27T16:57:46.179Z,78.93
2018-11-27T17:00:31.391Z,80.80
2018-11-27T17:03:00.994Z,67.57
2018-11-27T17:05:31.001Z,66.87
2018-11-27T17:07:59.656Z,48.60
2018-11-27T17:10:28.267Z,42.20
2018-11-27T17:12:57.866Z,36.13
2018-11-27T17:15:27.490Z,37.43
2018-11-27T17:17:56.021Z,35.03
2018-11-27T17:20:25.889Z,37.37
2018-11-27T17:22:55.236Z,35.80
2018-11-27T17:25:23.659Z,36.50
2018-11-27T17:27:53.005Z,37.77
2018-11-27T17:30:23.341Z,37.97
2018-11-27T17:32:52.779Z,54.03
2018-11-27T17:35:21.774Z,59.13
2018-11-27T17:37:50.429Z,62.17
2018-11-27T17:40:19.108Z,56.00
2018-11-27T17:42:47.791Z,48.27
2018-11-27T17:45:16.649Z,38.20
2018-11-27T17:47:45.789Z,35.80
2018-11-27T17:50:15.648Z,32.67
2018-11-27T17:52:44.155Z,30.80
2018-11-27T17:55:13.247Z,24.60
2018-11-27T17:57:41.826Z,25.10
2018-11-27T18:00:26.959Z,27.90
2018-11-27T18:02:57.055Z,25.90
2018-11-27T18:05:25.635Z,26.47
2018-11-27T18:07:54.151Z,27.40
2018-11-27T18:10:22.894Z,28.33
2018-11-27T18:12:51.620Z,33.67
2018-11-27T18:15:22.079Z,42.23
2018-11-27T18:17:50.614Z,46.50
2018-11-27T18:20:19.119Z,48.80
2018-11-27T18:22:47.776Z,43.07
2018-11-27T18:25:17.664Z,41.20
2018-11-27T18:27:47.143Z,45.27
2018-11-27T18:30:17.527Z,44.87
2018-11-27T18:32:46.087Z,35.27
2018-11-27T18:35:16.372Z,25.47
2018-11-27T18:37:45.055Z,29.77
2018-11-27T18:40:14.529Z,29.57
2018-11-27T18:42:43.318Z,28.20
2018-11-27T18:45:22.761Z,29.10
2018-11-27T18:47:51.364Z,22.17
2018-11-27T18:50:20.439Z,22.03
2018-11-27T18:52:48.952Z,23.10
2018-11-27T18:55:17.636Z,21.50
2018-11-27T18:57:47.110Z,20.00
2018-11-27T19:00:19.924Z,21.63
2018-11-27T19:02:48.630Z,18.80
2018-11-27T19:05:17.814Z,18.87
2018-11-27T19:07:46.534Z,24.33
2018-11-27T19:10:16.303Z,18.57
2018-11-27T19:12:44.931Z,20.10
2018-11-27T19:15:49.488Z,19.60
2018-11-27T19:18:20.143Z,23.50
2018-11-27T19:20:48.639Z,18.87
2018-11-27T19:23:18.270Z,20.63
2018-11-27T19:25:46.766Z,17.63
2018-11-27T19:28:15.417Z,21.50
2018-11-27T19:30:43.940Z,17.40
2018-11-27T19:33:12.558Z,19.73
2018-11-27T19:35:41.516Z,25.97
2018-11-27T19:38:11.659Z,27.63
2018-11-27T19:40:40.401Z,28.50
2018-11-27T19:43:08.886Z,26.23
2018-11-27T19:45:37.870Z,21.40
2018-11-27T19:48:07.664Z,18.23
2018-11-27T19:50:36.850Z,19.43
2018-11-27T19:53:12.013Z,17.57
2018-11-27T19:55:36.301Z,17.60
2018-11-27T19:58:06.190Z,26.27
2018-11-27T20:00:35.233Z,25.53
2018-11-27T20:03:04.496Z,28.47
2018-11-27T20:05:33.852Z,32.27
2018-11-27T20:08:03.158Z,40.27
2018-11-27T20:10:32.284Z,27.87
2018-11-27T20:13:01.472Z,19.90
2018-11-27T20:15:31.802Z,21.53
2018-11-27T20:18:01.060Z,25.77
2018-11-27T20:20:30.621Z,24.43
2018-11-27T20:23:00.544Z,16.70
2018-11-27T20:25:29.878Z,16.70
2018-11-27T20:27:59.284Z,16.80
2018-11-27T20:30:29.287Z,23.73
2018-11-27T20:33:03.022Z,21.53
2018-11-27T20:35:32.975Z,23.07
2018-11-27T20:38:04.261Z,22.10
2018-11-27T20:40:33.523Z,26.20
2018-11-27T20:43:03.113Z,19.73
2018-11-27T20:45:32.500Z,23.37
2018-11-27T20:48:08.095Z,19.27
2018-11-27T20:50:37.482Z,21.20
2018-11-27T20:53:06.837Z,21.73
2018-11-27T20:55:36.319Z,21.87
2018-11-27T20:58:05.506Z,24.43
2018-11-27T21:00:37.971Z,23.00
2018-11-27T21:03:08.184Z,26.97
2018-11-27T21:05:37.287Z,26.17
2018-11-27T21:08:07.296Z,24.20
2018-11-27T21:10:36.920Z,20.40
2018-11-27T21:13:06.563Z,16.23
2018-11-27T21:15:36.051Z,17.07
2018-11-27T21:18:05.399Z,20.20
2018-11-27T21:20:34.025Z,17.57
2018-11-27T21:23:03.010Z,18.60
2018-11-27T21:25:31.744Z,23.87
2018-11-27T21:28:10.082Z,31.47
2018-11-27T21:30:39.042Z,29.13
2018-11-27T21:33:07.570Z,72.07
2018-11-27T21:35:36.370Z,46.97
2018-11-27T21:38:05.378Z,23.37
2018-11-27T21:40:34.401Z,21.00
2018-11-27T21:43:03.030Z,19.03
2018-11-27T21:45:31.599Z,17.10
2018-11-27T21:48:00.157Z,14.10
2018-11-27T21:50:34.390Z,13.93
2018-11-27T21:53:02.824Z,13.87
2018-11-27T21:55:31.504Z,10.33
2018-11-27T21:58:00.183Z,14.30
2018-11-27T22:00:28.726Z,14.83
2018-11-27T22:02:57.285Z,17.80
2018-11-27T22:05:25.996Z,15.97
2018-11-27T22:07:54.548Z,15.67
2018-11-27T22:10:24.043Z,11.50
2018-11-27T22:12:54.271Z,12.97
2018-11-27T22:15:28.317Z,12.40
2018-11-27T22:17:56.992Z,16.17
2018-11-27T22:20:25.717Z,14.50
2018-11-27T22:22:54.461Z,15.17
2018-11-27T22:25:22.970Z,13.27
2018-11-27T22:27:52.175Z,16.27
2018-11-27T22:30:21.135Z,11.20
2018-11-27T22:32:50.707Z,14.80
2018-11-27T22:35:19.327Z,12.77
2018-11-27T22:37:48.143Z,17.30
2018-11-27T22:40:22.064Z,16.40
2018-11-27T22:42:51.242Z,16.57
2018-11-27T22:45:24.502Z,15.63
2018-11-27T22:47:53.044Z,14.63
2018-11-27T22:50:21.560Z,18.50
2018-11-27T22:52:50.421Z,20.53
2018-11-27T22:55:18.959Z,23.33
2018-11-27T22:57:47.706Z,24.40
2018-11-27T23:00:30.816Z,20.77
2018-11-27T23:02:59.433Z,17.87
2018-11-27T23:05:27.967Z,15.53
2018-11-27T23:07:56.571Z,14.63
2018-11-27T23:10:26.449Z,11.43
2018-11-27T23:12:55.098Z,11.10
2018-11-27T23:15:23.612Z,11.57
2018-11-27T23:17:52.081Z,11.87
2018-11-27T23:20:20.820Z,14.87
2018-11-27T23:22:49.544Z,13.10
2018-11-27T23:25:19.022Z,12.80
2018-11-27T23:27:47.697Z,16.00
2018-11-27T23:30:20.730Z,19.97
2018-11-27T23:32:49.322Z,25.83
2018-11-27T23:35:17.841Z,26.67
2018-11-27T23:37:46.449Z,25.80
2018-11-27T23:40:16.674Z,29.20
2018-11-27T23:42:45.848Z,28.10
2018-11-27T23:45:18.812Z,19.93
2018-11-27T23:47:47.320Z,19.60
2018-11-27T23:50:17.219Z,21.00
2018-11-27T23:52:46.106Z,18.20
2018-11-27T23:55:15.426Z,11.97
2018-11-27T23:57:44.398Z,13.20
